Terminal Aerodrome Forecast
Issued by NWS

Current Version | Previous Version | Text Only | Print | Product List | Glossary Off
Versions: 1 2 3 4 5 6 7 8 9 10 11 12 13 14 15 16 17 18 19 20 21 22 23 24 25 26 27 28 29 30 31 32

000
FTUS41 KRNK 270537
TAFLWB
TAF
KLWB 270537Z 2706/2806 VRB03KT P6SM SCT150
     FM270900 25005KT P6SM VCSH BKN090
     FM271200 25007KT P6SM BKN060
     FM271400 26009KT P6SM VCSH BKN035
      TEMPO 2718/2720 BKN025
     FM280000 28005KT P6SM BKN035=

USA.gov is the U.S. government's official web portal to all federal, state and local government web resources and services.